createdAt,value
2023-03-07T00:01:31.671Z,-0.13
2023-03-07T00:04:02.741Z,-0.14
2023-03-07T00:06:33.202Z,-0.08
2023-03-07T00:09:04.724Z,-0.08
2023-03-07T00:11:35.022Z,-0.07
2023-03-07T00:14:09.151Z,-0.08
2023-03-07T00:16:39.592Z,-0.10
2023-03-07T00:19:09.952Z,-0.11
2023-03-07T00:21:41.002Z,-0.10
2023-03-07T00:24:11.936Z,-0.11
2023-03-07T00:26:42.320Z,-0.11
2023-03-07T00:29:13.331Z,-0.14
2023-03-07T00:31:43.816Z,-0.16
2023-03-07T00:34:14.211Z,-0.20
2023-03-07T00:36:44.549Z,-0.19
2023-03-07T00:39:15.402Z,-0.19
2023-03-07T00:41:46.078Z,-0.19
2023-03-07T00:44:16.396Z,-0.22
2023-03-07T00:46:47.398Z,-0.25
2023-03-07T00:49:17.903Z,-0.29
2023-03-07T00:51:48.472Z,-0.32
2023-03-07T00:54:19.875Z,-0.33
2023-03-07T00:56:50.216Z,-0.33
2023-03-07T00:59:21.068Z,-0.34
2023-03-07T01:01:52.320Z,-0.35
2023-03-07T01:04:22.783Z,-0.37
2023-03-07T01:06:53.189Z,-0.41
2023-03-07T01:09:23.781Z,-0.40
2023-03-07T01:11:54.674Z,-0.39
2023-03-07T01:14:25.410Z,-0.38
2023-03-07T01:16:55.841Z,-0.38
2023-03-07T01:19:26.443Z,-0.39
2023-03-07T01:21:58.251Z,-0.41
2023-03-07T01:24:28.827Z,-0.43
2023-03-07T01:26:59.426Z,-0.44
2023-03-07T01:29:29.808Z,-0.42
2023-03-07T01:32:00.286Z,-0.38
2023-03-07T01:34:31.059Z,-0.34
2023-03-07T01:37:01.506Z,-0.35
2023-03-07T01:39:32.743Z,-0.31
2023-03-07T01:42:07.988Z,-0.30
2023-03-07T01:45:02.153Z,-0.31
2023-03-07T01:47:43.493Z,-0.28
2023-03-07T01:50:18.365Z,-0.24
2023-03-07T01:52:50.834Z,-0.21
2023-03-07T01:55:24.172Z,-0.19
2023-03-07T01:57:57.856Z,-0.20
2023-03-07T02:00:29.907Z,-0.22
2023-03-07T02:03:08.969Z,-0.25
2023-03-07T02:05:42.449Z,-0.23
2023-03-07T02:08:14.941Z,-0.21
2023-03-07T02:10:45.864Z,-0.18
2023-03-07T02:13:16.430Z,-0.17
2023-03-07T02:15:47.132Z,-0.19
2023-03-07T02:18:19.353Z,-0.21
2023-03-07T02:20:55.951Z,-0.22
2023-03-07T02:23:31.694Z,-0.24
2023-03-07T02:26:07.978Z,-0.23
2023-03-07T02:28:39.963Z,-0.20
2023-03-07T02:31:11.653Z,-0.18
2023-03-07T02:33:42.628Z,-0.18
2023-03-07T02:36:17.668Z,-0.18
2023-03-07T02:39:04.343Z,-0.18
2023-03-07T02:41:35.995Z,-0.14
2023-03-07T02:44:10.396Z,-0.13
2023-03-07T02:46:40.990Z,-0.12
2023-03-07T02:49:11.460Z,-0.13
2023-03-07T02:51:43.176Z,-0.15
2023-03-07T02:54:13.835Z,-0.13
2023-03-07T02:56:44.219Z,-0.11
2023-03-07T02:59:14.806Z,-0.07
2023-03-07T03:01:45.433Z,-0.04
2023-03-07T03:04:15.828Z,-0.04
2023-03-07T03:06:46.153Z,-0.05
2023-03-07T03:09:16.508Z,-0.04
2023-03-07T03:11:46.874Z,-0.02
2023-03-07T03:14:17.998Z,-0.00
2023-03-07T03:16:49.508Z,0.01
2023-03-07T03:19:19.850Z,-0.01
2023-03-07T03:21:51.942Z,-0.01
2023-03-07T03:24:22.269Z,0.01
2023-03-07T03:26:52.756Z,0.03
2023-03-07T03:29:25.415Z,0.05
2023-03-07T03:31:56.668Z,0.05
2023-03-07T03:34:27.479Z,0.05
2023-03-07T03:36:57.895Z,0.04
2023-03-07T03:39:29.079Z,0.04
2023-03-07T03:42:00.719Z,0.06
2023-03-07T03:44:31.016Z,0.08
2023-03-07T03:47:01.828Z,0.11
2023-03-07T03:49:33.057Z,0.11
2023-03-07T03:52:05.005Z,0.06
2023-03-07T03:54:35.517Z,0.09
2023-03-07T03:57:06.450Z,0.08
2023-03-07T03:59:36.765Z,0.09
2023-03-07T04:02:07.305Z,0.12
2023-03-07T04:04:37.789Z,0.15
2023-03-07T04:07:08.708Z,0.17
2023-03-07T04:09:39.079Z,0.18
2023-03-07T04:12:10.700Z,0.18
2023-03-07T04:14:41.244Z,0.18
2023-03-07T04:17:12.368Z,0.20
2023-03-07T04:19:42.840Z,0.24
2023-03-07T04:22:13.222Z,0.27
2023-03-07T04:24:45.124Z,0.28
2023-03-07T04:27:15.565Z,0.23
2023-03-07T04:29:46.043Z,0.29
2023-03-07T04:32:23.431Z,0.29
2023-03-07T04:34:53.776Z,0.31
2023-03-07T04:37:24.228Z,0.33
2023-03-07T04:39:54.575Z,0.35
2023-03-07T04:42:25.123Z,0.36
2023-03-07T04:44:55.910Z,0.36
2023-03-07T04:47:26.520Z,0.36
2023-03-07T04:49:57.463Z,0.38
2023-03-07T04:52:27.892Z,0.42
2023-03-07T04:54:58.513Z,0.45
2023-03-07T04:57:29.479Z,0.48
2023-03-07T05:00:00.105Z,0.48
2023-03-07T05:02:30.688Z,0.48
2023-03-07T05:05:04.590Z,0.47
2023-03-07T05:07:35.040Z,0.48
2023-03-07T05:10:06.345Z,0.49
2023-03-07T05:12:37.045Z,0.52
2023-03-07T05:15:09.554Z,0.54
2023-03-07T05:17:40.505Z,0.54
2023-03-07T05:20:13.113Z,0.49
2023-03-07T05:22:44.771Z,0.53
2023-03-07T05:25:15.561Z,0.55
2023-03-07T05:27:46.694Z,0.57
2023-03-07T05:30:17.712Z,0.62
2023-03-07T05:32:48.256Z,0.64
2023-03-07T05:35:19.237Z,0.65
2023-03-07T05:37:50.074Z,0.60
2023-03-07T05:40:21.308Z,0.65
2023-03-07T05:42:52.294Z,0.68
2023-03-07T05:45:23.057Z,0.71
2023-03-07T05:47:53.728Z,0.72
2023-03-07T05:50:24.157Z,0.71
2023-03-07T05:52:54.801Z,0.70
2023-03-07T05:55:26.780Z,0.68
2023-03-07T05:57:57.804Z,0.69
2023-03-07T06:00:29.339Z,0.71
2023-03-07T06:03:03.849Z,0.74
2023-03-07T06:05:34.687Z,0.75
2023-03-07T06:08:06.151Z,0.74
2023-03-07T06:10:40.174Z,0.73
2023-03-07T06:13:16.866Z,0.72
2023-03-07T06:15:49.142Z,0.74
2023-03-07T06:18:19.782Z,0.76
2023-03-07T06:20:58.658Z,0.78
2023-03-07T06:23:29.976Z,0.79
2023-03-07T06:26:01.661Z,0.79
2023-03-07T06:28:33.365Z,0.78
2023-03-07T06:31:10.691Z,0.77
2023-03-07T06:33:41.646Z,0.78
2023-03-07T06:36:14.902Z,0.81
2023-03-07T06:38:47.477Z,0.84
2023-03-07T06:41:17.976Z,0.80
2023-03-07T06:43:53.345Z,0.86
2023-03-07T06:46:28.347Z,0.86
2023-03-07T06:48:58.987Z,0.87
2023-03-07T06:51:29.846Z,0.89
2023-03-07T06:54:01.474Z,0.92
2023-03-07T06:56:34.225Z,0.88
2023-03-07T06:59:04.853Z,0.88
2023-03-07T07:01:35.903Z,0.93
2023-03-07T07:04:06.780Z,0.95
2023-03-07T07:06:37.448Z,0.98
2023-03-07T07:09:07.946Z,1.02
2023-03-07T07:11:40.725Z,1.04
2023-03-07T07:14:13.849Z,1.04
2023-03-07T07:16:44.987Z,1.04
2023-03-07T07:19:15.881Z,1.07
2023-03-07T07:21:46.587Z,1.11
2023-03-07T07:24:17.355Z,1.14
2023-03-07T07:26:48.328Z,1.15
2023-03-07T07:29:18.723Z,1.17
2023-03-07T07:31:50.586Z,1.19
2023-03-07T07:34:21.994Z,1.21
2023-03-07T07:36:53.141Z,1.26
2023-03-07T07:39:24.399Z,1.32
2023-03-07T07:41:56.009Z,1.36
2023-03-07T07:44:28.287Z,1.36
2023-03-07T07:47:01.793Z,1.35
2023-03-07T07:49:32.279Z,1.37
2023-03-07T07:52:02.768Z,1.41
2023-03-07T07:54:33.147Z,1.44
2023-03-07T07:57:03.592Z,1.45
2023-03-07T07:59:34.594Z,1.45
2023-03-07T08:02:05.301Z,1.46
2023-03-07T08:04:35.726Z,1.50
2023-03-07T08:07:06.174Z,1.53
2023-03-07T08:09:37.098Z,1.55
2023-03-07T08:12:09.302Z,1.55
2023-03-07T08:14:39.831Z,1.57
2023-03-07T08:17:10.781Z,1.56
2023-03-07T08:19:41.145Z,1.62
2023-03-07T08:22:11.518Z,1.73
2023-03-07T08:24:41.889Z,1.76
2023-03-07T08:27:12.248Z,1.82
2023-03-07T08:29:43.332Z,1.90
2023-03-07T08:32:17.047Z,1.99
2023-03-07T08:34:47.495Z,2.08
2023-03-07T08:37:17.762Z,2.17
2023-03-07T08:39:48.260Z,2.26
2023-03-07T08:42:19.408Z,2.34
2023-03-07T08:44:51.291Z,2.44
2023-03-07T08:47:22.334Z,2.53
2023-03-07T08:49:55.627Z,2.62
2023-03-07T08:52:27.274Z,2.70
2023-03-07T08:54:59.538Z,2.76
2023-03-07T08:57:32.187Z,2.81
2023-03-07T09:00:03.224Z,2.82
2023-03-07T09:02:35.804Z,2.94
2023-03-07T09:05:09.275Z,3.02
2023-03-07T09:07:41.333Z,3.09
2023-03-07T09:10:14.525Z,3.10
2023-03-07T09:12:46.107Z,3.13
2023-03-07T09:15:18.552Z,3.15
2023-03-07T09:17:51.228Z,3.16
2023-03-07T09:20:24.730Z,3.18
2023-03-07T09:22:57.272Z,3.21
2023-03-07T09:25:30.396Z,3.27
2023-03-07T09:28:02.599Z,3.36
2023-03-07T09:30:37.295Z,3.43
2023-03-07T09:33:09.057Z,3.53
2023-03-07T09:35:39.919Z,3.62
2023-03-07T09:38:12.285Z,3.67
2023-03-07T09:40:46.259Z,3.72
2023-03-07T09:48:12.471Z,4.03
2023-03-07T09:50:47.543Z,4.19
2023-03-07T09:53:23.613Z,4.30
2023-03-07T09:55:57.747Z,4.39
2023-03-07T09:58:29.650Z,4.52
2023-03-07T10:01:01.619Z,4.69
2023-03-07T10:03:39.276Z,4.89
2023-03-07T10:06:16.204Z,5.05
2023-03-07T10:08:46.949Z,5.20
2023-03-07T10:11:35.627Z,5.27
2023-03-07T10:14:16.911Z,5.21
2023-03-07T10:16:51.970Z,5.32
2023-03-07T10:19:29.144Z,5.41
2023-03-07T10:22:05.106Z,5.44
2023-03-07T10:24:50.782Z,5.41
2023-03-07T10:27:21.892Z,5.37
2023-03-07T10:29:54.348Z,5.38
2023-03-07T10:32:31.090Z,5.29
2023-03-07T10:35:08.329Z,5.24
2023-03-07T10:37:46.389Z,5.23
2023-03-07T10:40:23.426Z,5.26
2023-03-07T10:42:54.746Z,5.32
2023-03-07T10:45:25.462Z,5.36
2023-03-07T10:47:55.768Z,5.36
2023-03-07T10:50:32.955Z,5.37
2023-03-07T10:53:05.700Z,5.49
2023-03-07T10:55:39.454Z,5.79
2023-03-07T10:58:23.867Z,6.12
2023-03-07T11:01:12.041Z,6.69
2023-03-07T11:03:53.543Z,7.09
2023-03-07T11:06:37.614Z,7.57
2023-03-07T11:09:20.392Z,8.09
2023-03-07T11:11:53.921Z,8.29
2023-03-07T11:14:25.183Z,8.25
2023-03-07T11:16:57.475Z,8.07
2023-03-07T11:19:33.313Z,7.76
2023-03-07T11:22:37.566Z,7.34
2023-03-07T11:25:16.442Z,6.90
2023-03-07T11:27:53.713Z,6.69
2023-03-07T11:30:26.408Z,6.73
2023-03-07T11:33:11.767Z,6.85
2023-03-07T11:36:06.098Z,7.05
2023-03-07T11:38:45.929Z,7.25
2023-03-07T11:41:20.617Z,7.21
2023-03-07T11:43:59.948Z,7.21
2023-03-07T11:46:42.503Z,7.25
2023-03-07T11:49:27.575Z,6.99
2023-03-07T11:52:32.553Z,7.19
2023-03-07T11:55:39.466Z,7.20
2023-03-07T11:58:32.098Z,7.12
2023-03-07T12:01:12.703Z,7.01
2023-03-07T12:04:14.304Z,6.94
2023-03-07T12:06:51.995Z,6.83
2023-03-07T12:09:29.976Z,6.75
2023-03-07T12:12:13.644Z,6.72
2023-03-07T12:14:51.265Z,6.68
2023-03-07T12:17:29.028Z,6.65
2023-03-07T12:20:37.900Z,6.61
2023-03-07T12:23:16.138Z,6.57
2023-03-07T12:25:48.611Z,6.60
2023-03-07T12:28:25.337Z,6.52
2023-03-07T12:31:06.506Z,6.36
2023-03-07T12:33:48.184Z,6.18
2023-03-07T12:36:25.024Z,6.02
2023-03-07T12:38:58.226Z,5.86
2023-03-07T12:41:41.751Z,5.74
2023-03-07T12:44:17.833Z,5.60
2023-03-07T12:46:50.631Z,5.51
2023-03-07T12:49:25.401Z,5.45
2023-03-07T12:51:59.230Z,5.42
2023-03-07T12:54:32.280Z,5.42
2023-03-07T12:57:07.267Z,5.45
2023-03-07T12:59:38.104Z,5.49
2023-03-07T13:02:15.028Z,5.52
2023-03-07T13:04:45.856Z,5.54
2023-03-07T13:07:21.929Z,5.56
2023-03-07T13:09:53.813Z,5.55
2023-03-07T13:12:42.301Z,5.52
2023-03-07T13:18:41.034Z,5.44
2023-03-07T13:21:14.897Z,5.40
2023-03-07T13:23:45.382Z,5.42
2023-03-07T13:26:16.892Z,5.44
2023-03-07T13:28:52.189Z,5.46
2023-03-07T13:31:30.780Z,5.40
2023-03-07T13:34:41.451Z,5.43
2023-03-07T13:37:49.201Z,5.39
2023-03-07T13:40:44.385Z,5.36
2023-03-07T13:43:56.683Z,5.35
2023-03-07T13:46:47.607Z,5.34
2023-03-07T13:49:36.558Z,5.36
2023-03-07T13:52:45.225Z,5.35
2023-03-07T13:55:34.692Z,5.36
2023-03-07T13:58:18.941Z,5.37
2023-03-07T14:00:56.277Z,5.48
2023-03-07T14:03:30.631Z,5.60
2023-03-07T14:06:04.526Z,5.79
2023-03-07T14:08:36.331Z,5.83
2023-03-07T14:11:08.049Z,5.90
2023-03-07T14:14:04.477Z,5.89
2023-03-07T14:16:47.286Z,5.81
2023-03-07T14:19:28.487Z,5.70
2023-03-07T14:22:03.733Z,5.56
2023-03-07T14:24:46.399Z,5.41
2023-03-07T14:27:17.474Z,5.27
2023-03-07T14:29:52.894Z,5.17
2023-03-07T14:32:29.533Z,5.07
2023-03-07T14:35:00.770Z,4.98
2023-03-07T14:37:32.628Z,4.91
2023-03-07T14:40:15.768Z,4.84
2023-03-07T14:42:46.215Z,4.77
2023-03-07T14:45:23.445Z,4.70
2023-03-07T14:48:04.613Z,4.63
2023-03-07T14:50:39.913Z,4.58
2023-03-07T14:53:16.822Z,4.59
2023-03-07T14:55:49.305Z,4.64
2023-03-07T14:58:22.286Z,4.69
2023-03-07T15:00:59.474Z,4.73
2023-03-07T15:03:30.902Z,4.75
2023-03-07T15:06:02.793Z,4.77
2023-03-07T15:08:35.363Z,4.81
2023-03-07T15:11:09.156Z,4.87
2023-03-07T15:13:42.773Z,4.91
2023-03-07T15:16:16.718Z,4.98
2023-03-07T15:18:49.874Z,5.03
2023-03-07T15:21:22.973Z,5.09
2023-03-07T15:23:58.156Z,5.10
2023-03-07T15:26:30.260Z,5.20
2023-03-07T15:29:08.433Z,5.18
2023-03-07T15:31:53.783Z,5.26
2023-03-07T15:34:27.291Z,5.26
2023-03-07T15:37:03.870Z,5.25
2023-03-07T15:39:35.894Z,5.19
2023-03-07T15:42:09.882Z,5.07
2023-03-07T15:44:40.320Z,5.09
2023-03-07T15:47:18.250Z,5.07
2023-03-07T15:49:50.269Z,5.01
2023-03-07T15:52:31.661Z,4.97
2023-03-07T15:55:05.480Z,4.94
2023-03-07T15:57:39.204Z,4.91
2023-03-07T16:00:19.444Z,4.84
2023-03-07T16:02:50.416Z,4.90
2023-03-07T16:05:40.907Z,4.87
2023-03-07T16:08:19.859Z,4.79
2023-03-07T16:10:53.233Z,4.72
2023-03-07T16:13:27.110Z,4.65
2023-03-07T16:16:07.425Z,4.58
2023-03-07T16:18:37.963Z,4.50
2023-03-07T16:21:09.790Z,4.43
2023-03-07T16:23:40.250Z,4.36
2023-03-07T16:26:16.232Z,4.28
2023-03-07T16:28:46.855Z,4.24
2023-03-07T16:31:18.760Z,4.18
2023-03-07T16:33:49.879Z,4.14
2023-03-07T16:36:20.362Z,4.12
2023-03-07T16:38:50.791Z,4.12
2023-03-07T16:41:22.873Z,4.05
2023-03-07T16:43:56.474Z,4.00
2023-03-07T16:46:27.711Z,4.06
2023-03-07T16:48:58.026Z,4.02
2023-03-07T16:51:30.488Z,4.01
2023-03-07T16:54:00.884Z,3.97
2023-03-07T16:56:33.983Z,3.93
2023-03-07T16:59:04.452Z,3.91
2023-03-07T17:01:34.985Z,3.87
2023-03-07T17:04:05.422Z,3.84
2023-03-07T17:06:39.556Z,3.82
2023-03-07T17:09:11.508Z,3.83
2023-03-07T17:11:44.922Z,3.83
2023-03-07T17:14:16.728Z,3.81
2023-03-07T17:16:48.859Z,3.79
2023-03-07T17:19:29.690Z,3.77
2023-03-07T17:22:02.828Z,3.75
2023-03-07T17:24:34.801Z,3.73
2023-03-07T17:27:05.255Z,3.70
2023-03-07T17:29:38.294Z,3.67
2023-03-07T17:32:10.427Z,3.67
2023-03-07T17:34:41.139Z,3.68
2023-03-07T17:37:12.996Z,3.69
2023-03-07T17:39:43.728Z,3.69
2023-03-07T17:42:14.869Z,3.68
2023-03-07T17:49:11.426Z,3.66
2023-03-07T17:51:41.935Z,3.62
2023-03-07T17:54:12.344Z,3.61
2023-03-07T17:56:42.860Z,3.60
2023-03-07T17:59:13.443Z,3.61
2023-03-07T18:01:44.104Z,3.61
2023-03-07T18:04:14.637Z,3.60
2023-03-07T18:06:45.287Z,3.58
2023-03-07T18:09:18.751Z,3.56
2023-03-07T18:11:49.222Z,3.53
2023-03-07T18:14:20.279Z,3.49
2023-03-07T18:16:51.037Z,3.47
2023-03-07T18:19:26.643Z,3.40
2023-03-07T18:21:57.766Z,3.51
2023-03-07T18:24:29.969Z,3.52
2023-03-07T18:27:02.357Z,3.53
2023-03-07T18:29:32.776Z,3.51
2023-03-07T18:32:03.286Z,3.50
2023-03-07T18:34:34.111Z,3.49
2023-03-07T18:37:08.175Z,3.44
2023-03-07T18:39:38.928Z,3.47
2023-03-07T18:42:09.277Z,3.49
2023-03-07T18:44:42.332Z,3.47
2023-03-07T18:47:12.741Z,3.49
2023-03-07T18:49:43.408Z,3.56
2023-03-07T18:52:13.809Z,3.57
2023-03-07T18:54:44.226Z,3.56
2023-03-07T18:57:15.240Z,3.56
2023-03-07T18:59:45.877Z,3.54
2023-03-07T19:02:20.023Z,3.54
2023-03-07T19:04:53.445Z,3.53
2023-03-07T19:07:24.494Z,3.54
2023-03-07T19:09:55.172Z,3.49
2023-03-07T19:12:25.793Z,3.55
2023-03-07T19:14:56.176Z,3.54
2023-03-07T19:17:26.496Z,3.52
2023-03-07T19:19:59.224Z,3.49
2023-03-07T19:22:32.254Z,3.45
2023-03-07T19:25:01.347Z,3.42
2023-03-07T19:27:32.023Z,3.38
2023-03-07T19:30:02.506Z,3.34
2023-03-07T19:32:33.069Z,3.32
2023-03-07T19:35:03.728Z,3.29
2023-03-07T19:37:34.078Z,3.24
2023-03-07T19:40:05.063Z,3.14
2023-03-07T19:42:35.573Z,3.00
2023-03-07T19:45:07.238Z,2.83
2023-03-07T19:47:37.609Z,2.53
2023-03-07T19:50:09.823Z,2.36
2023-03-07T19:52:40.155Z,2.09
2023-03-07T19:55:11.652Z,1.99
2023-03-07T19:57:42.400Z,1.82
2023-03-07T20:00:16.486Z,1.66
2023-03-07T20:02:47.037Z,1.49
2023-03-07T20:05:17.665Z,1.39
2023-03-07T20:07:48.069Z,1.23
2023-03-07T20:10:19.129Z,1.16
2023-03-07T20:12:51.770Z,1.09
2023-03-07T20:15:22.194Z,1.04
2023-03-07T20:17:52.969Z,0.99
2023-03-07T20:20:23.918Z,0.95
2023-03-07T20:22:57.528Z,0.93
2023-03-07T20:25:30.538Z,0.88
2023-03-07T20:28:01.156Z,0.84
2023-03-07T20:30:31.682Z,0.79
2023-03-07T20:33:02.148Z,0.75
2023-03-07T20:35:32.746Z,0.67
2023-03-07T20:38:03.260Z,0.72
2023-03-07T20:40:33.810Z,0.73
2023-03-07T20:43:05.717Z,0.72
2023-03-07T20:45:36.431Z,0.67
2023-03-07T20:48:07.128Z,0.68
2023-03-07T20:51:23.800Z,0.66
2023-03-07T20:53:58.334Z,0.63
2023-03-07T20:56:30.223Z,0.64
2023-03-07T20:59:00.861Z,0.63
2023-03-07T21:01:32.665Z,0.57
2023-03-07T21:04:06.235Z,0.57
2023-03-07T21:06:37.445Z,0.55
2023-03-07T21:09:10.050Z,0.54
2023-03-07T21:11:41.204Z,0.49
2023-03-07T21:14:11.792Z,0.51
2023-03-07T21:16:42.975Z,0.47
2023-03-07T21:19:13.385Z,0.42
2023-03-07T21:21:47.434Z,0.37
2023-03-07T21:24:17.724Z,0.32
2023-03-07T21:26:48.204Z,0.28
2023-03-07T21:29:18.887Z,0.28
2023-03-07T21:31:49.168Z,0.30
2023-03-07T21:34:19.404Z,0.33
2023-03-07T21:36:55.857Z,0.36
2023-03-07T21:39:26.711Z,0.36
2023-03-07T21:41:57.268Z,0.37
2023-03-07T21:44:27.504Z,0.36
2023-03-07T21:46:57.735Z,0.32
2023-03-07T21:49:28.706Z,0.29
2023-03-07T21:51:59.012Z,0.28
2023-03-07T21:54:29.509Z,0.27
2023-03-07T21:56:59.789Z,0.25
2023-03-07T21:59:29.997Z,0.23
2023-03-07T22:02:00.268Z,0.19
2023-03-07T22:04:30.514Z,0.16
2023-03-07T22:07:00.655Z,0.10
2023-03-07T22:09:30.815Z,0.17
2023-03-07T22:12:00.928Z,0.20
2023-03-07T22:14:31.129Z,0.21
2023-03-07T22:17:01.333Z,0.22
2023-03-07T22:19:31.765Z,0.22
2023-03-07T22:22:01.957Z,0.24
2023-03-07T22:24:32.232Z,0.28
2023-03-07T22:27:02.348Z,0.31
2023-03-07T22:29:32.597Z,0.32
2023-03-07T22:32:02.763Z,0.31
2023-03-07T22:34:32.912Z,0.28
2023-03-07T22:37:03.054Z,0.24
2023-03-07T22:39:33.225Z,0.23
2023-03-07T22:42:03.343Z,0.18
2023-03-07T22:44:33.464Z,0.26
2023-03-07T22:47:03.731Z,0.21
2023-03-07T22:49:34.451Z,0.23
2023-03-07T22:52:05.036Z,0.21
2023-03-07T22:54:39.129Z,0.20
2023-03-07T22:57:09.472Z,0.22
2023-03-07T22:59:39.811Z,0.24
2023-03-07T23:02:09.983Z,0.25
2023-03-07T23:04:40.463Z,0.25
2023-03-07T23:07:10.588Z,0.21
2023-03-07T23:09:40.787Z,0.18
2023-03-07T23:12:11.707Z,0.17
2023-03-07T23:14:41.862Z,0.18
2023-03-07T23:17:12.003Z,0.18
2023-03-07T23:19:42.133Z,0.18
2023-03-07T23:22:12.401Z,0.16
2023-03-07T23:24:42.881Z,0.12
2023-03-07T23:27:13.019Z,0.09
2023-03-07T23:29:43.217Z,0.07
2023-03-07T23:32:13.413Z,0.07
2023-03-07T23:34:43.636Z,0.06
2023-03-07T23:37:13.807Z,0.04
2023-03-07T23:39:44.317Z,0.01
2023-03-07T23:42:15.044Z,-0.04
2023-03-07T23:44:45.184Z,-0.05
2023-03-07T23:47:15.292Z,-0.03
2023-03-07T23:49:45.454Z,-0.01
2023-03-07T23:52:15.708Z,-0.01
2023-03-07T23:54:47.465Z,-0.01
2023-03-07T23:57:17.522Z,-0.02
2023-03-07T23:59:49.918Z,-0.02
